sensor_id;sensor_type;location;lat;lon;timestamp;temperature;humidity
4910;DHT22;2470;49.868;8.660;2022-08-21T00:01:30;22.10;73.00
4910;DHT22;2470;49.868;8.660;2022-08-21T00:03:56;22.10;74.00
4910;DHT22;2470;49.868;8.660;2022-08-21T00:06:22;22.10;74.80
4910;DHT22;2470;49.868;8.660;2022-08-21T00:08:52;22.10;75.50
4910;DHT22;2470;49.868;8.660;2022-08-21T00:11:18;22.00;75.40
4910;DHT22;2470;49.868;8.660;2022-08-21T00:13:43;22.00;76.10
4910;DHT22;2470;49.868;8.660;2022-08-21T00:16:09;22.00;76.80
4910;DHT22;2470;49.868;8.660;2022-08-21T00:18:36;21.90;77.30
4910;DHT22;2470;49.868;8.660;2022-08-21T00:21:02;21.90;78.30
4910;DHT22;2470;49.868;8.660;2022-08-21T00:23:28;21.90;78.40
4910;DHT22;2470;49.868;8.660;2022-08-21T00:25:53;21.80;78.90
4910;DHT22;2470;49.868;8.660;2022-08-21T00:28:19;21.80;79.20
4910;DHT22;2470;49.868;8.660;2022-08-21T00:30:45;21.80;79.70
4910;DHT22;2470;49.868;8.660;2022-08-21T00:33:11;21.70;79.70
4910;DHT22;2470;49.868;8.660;2022-08-21T00:35:39;21.60;80.40
4910;DHT22;2470;49.868;8.660;2022-08-21T00:38:06;21.60;81.30
4910;DHT22;2470;49.868;8.660;2022-08-21T00:40:43;21.60;81.80
4910;DHT22;2470;49.868;8.660;2022-08-21T00:43:13;21.60;82.30
4910;DHT22;2470;49.868;8.660;2022-08-21T00:45:39;21.60;82.60
4910;DHT22;2470;49.868;8.660;2022-08-21T00:48:05;21.60;82.90
4910;DHT22;2470;49.868;8.660;2022-08-21T00:50:33;21.60;82.80
4910;DHT22;2470;49.868;8.660;2022-08-21T00:53:01;21.50;82.90
4910;DHT22;2470;49.868;8.660;2022-08-21T00:55:28;21.50;83.20
4910;DHT22;2470;49.868;8.660;2022-08-21T00:57:56;21.50;83.40
4910;DHT22;2470;49.868;8.660;2022-08-21T01:00:27;21.50;83.60
4910;DHT22;2470;49.868;8.660;2022-08-21T01:02:58;21.50;83.90
4910;DHT22;2470;49.868;8.660;2022-08-21T01:05:24;21.40;84.30
4910;DHT22;2470;49.868;8.660;2022-08-21T01:07:49;21.40;85.00
4910;DHT22;2470;49.868;8.660;2022-08-21T01:10:15;21.30;85.40
4910;DHT22;2470;49.868;8.660;2022-08-21T01:12:41;21.40;86.00
4910;DHT22;2470;49.868;8.660;2022-08-21T01:15:13;21.30;86.20
4910;DHT22;2470;49.868;8.660;2022-08-21T01:17:40;21.30;86.80
4910;DHT22;2470;49.868;8.660;2022-08-21T01:20:08;21.30;87.40
4910;DHT22;2470;49.868;8.660;2022-08-21T01:22:35;21.20;88.00
4910;DHT22;2470;49.868;8.660;2022-08-21T01:25:03;21.20;88.40
4910;DHT22;2470;49.868;8.660;2022-08-21T01:27:29;21.10;89.10
4910;DHT22;2470;49.868;8.660;2022-08-21T01:29:58;21.10;89.80
4910;DHT22;2470;49.868;8.660;2022-08-21T01:32:25;21.00;90.10
4910;DHT22;2470;49.868;8.660;2022-08-21T01:34:51;21.00;90.50
4910;DHT22;2470;49.868;8.660;2022-08-21T01:37:19;21.00;90.80
4910;DHT22;2470;49.868;8.660;2022-08-21T01:39:45;20.90;90.70
4910;DHT22;2470;49.868;8.660;2022-08-21T01:42:10;20.90;90.90
4910;DHT22;2470;49.868;8.660;2022-08-21T01:44:36;20.90;90.80
4910;DHT22;2470;49.868;8.660;2022-08-21T01:47:07;20.90;90.60
4910;DHT22;2470;49.868;8.660;2022-08-21T01:49:33;20.80;90.20
4910;DHT22;2470;49.868;8.660;2022-08-21T01:51:59;20.80;90.40
4910;DHT22;2470;49.868;8.660;2022-08-21T01:54:25;20.80;90.40
4910;DHT22;2470;49.868;8.660;2022-08-21T01:56:52;20.70;90.00
4910;DHT22;2470;49.868;8.660;2022-08-21T01:59:19;20.70;90.20
4910;DHT22;2470;49.868;8.660;2022-08-21T02:01:45;20.70;90.60
4910;DHT22;2470;49.868;8.660;2022-08-21T02:04:10;20.70;90.10
4910;DHT22;2470;49.868;8.660;2022-08-21T02:06:36;20.70;90.30
4910;DHT22;2470;49.868;8.660;2022-08-21T02:09:07;20.70;90.40
4910;DHT22;2470;49.868;8.660;2022-08-21T02:11:34;20.70;90.20
4910;DHT22;2470;49.868;8.660;2022-08-21T02:16:35;20.80;91.00
4910;DHT22;2470;49.868;8.660;2022-08-21T02:19:01;20.70;91.70
4910;DHT22;2470;49.868;8.660;2022-08-21T02:21:26;20.70;92.00
4910;DHT22;2470;49.868;8.660;2022-08-21T02:23:52;20.70;92.20
4910;DHT22;2470;49.868;8.660;2022-08-21T02:26:18;20.70;92.50
4910;DHT22;2470;49.868;8.660;2022-08-21T02:28:43;20.70;92.70
4910;DHT22;2470;49.868;8.660;2022-08-21T02:31:09;20.60;92.80
4910;DHT22;2470;49.868;8.660;2022-08-21T02:33:35;20.60;93.00
4910;DHT22;2470;49.868;8.660;2022-08-21T02:36:02;20.60;93.10
4910;DHT22;2470;49.868;8.660;2022-08-21T02:38:31;20.60;93.10
4910;DHT22;2470;49.868;8.660;2022-08-21T02:40:58;20.50;93.10
4910;DHT22;2470;49.868;8.660;2022-08-21T02:43:25;20.50;93.50
4910;DHT22;2470;49.868;8.660;2022-08-21T02:45:52;20.40;93.60
4910;DHT22;2470;49.868;8.660;2022-08-21T02:48:22;20.40;93.90
4910;DHT22;2470;49.868;8.660;2022-08-21T02:50:52;20.40;94.10
4910;DHT22;2470;49.868;8.660;2022-08-21T02:53:19;20.40;94.30
4910;DHT22;2470;49.868;8.660;2022-08-21T02:55:47;20.30;94.40
4910;DHT22;2470;49.868;8.660;2022-08-21T02:58:15;20.20;94.50
4910;DHT22;2470;49.868;8.660;2022-08-21T03:00:41;20.20;94.70
4910;DHT22;2470;49.868;8.660;2022-08-21T03:03:06;20.30;95.00
4910;DHT22;2470;49.868;8.660;2022-08-21T03:05:34;20.20;95.10
4910;DHT22;2470;49.868;8.660;2022-08-21T03:08:01;20.20;95.20
4910;DHT22;2470;49.868;8.660;2022-08-21T03:10:27;20.20;95.30
4910;DHT22;2470;49.868;8.660;2022-08-21T03:12:53;20.20;95.50
4910;DHT22;2470;49.868;8.660;2022-08-21T03:15:21;20.20;95.70
4910;DHT22;2470;49.868;8.660;2022-08-21T03:17:49;20.20;95.80
4910;DHT22;2470;49.868;8.660;2022-08-21T03:20:18;20.20;95.90
4910;DHT22;2470;49.868;8.660;2022-08-21T03:22:44;20.10;95.80
4910;DHT22;2470;49.868;8.660;2022-08-21T03:25:10;20.10;96.00
4910;DHT22;2470;49.868;8.660;2022-08-21T03:27:36;20.00;96.10
4910;DHT22;2470;49.868;8.660;2022-08-21T03:30:04;20.00;96.20
4910;DHT22;2470;49.868;8.660;2022-08-21T03:32:30;20.00;96.60
4910;DHT22;2470;49.868;8.660;2022-08-21T03:34:57;20.00;96.70
4910;DHT22;2470;49.868;8.660;2022-08-21T03:37:23;20.00;96.70
4910;DHT22;2470;49.868;8.660;2022-08-21T03:39:49;20.10;96.70
4910;DHT22;2470;49.868;8.660;2022-08-21T03:42:15;20.00;96.70
4910;DHT22;2470;49.868;8.660;2022-08-21T03:44:41;20.00;96.80
4910;DHT22;2470;49.868;8.660;2022-08-21T03:47:06;20.10;97.00
4910;DHT22;2470;49.868;8.660;2022-08-21T03:49:32;20.10;96.90
4910;DHT22;2470;49.868;8.660;2022-08-21T03:51:59;20.00;96.90
4910;DHT22;2470;49.868;8.660;2022-08-21T03:54:25;20.00;96.90
4910;DHT22;2470;49.868;8.660;2022-08-21T03:56:51;20.00;96.90
4910;DHT22;2470;49.868;8.660;2022-08-21T03:59:17;20.00;97.00
4910;DHT22;2470;49.868;8.660;2022-08-21T04:01:59;20.00;97.00
4910;DHT22;2470;49.868;8.660;2022-08-21T04:04:27;20.00;97.00
4910;DHT22;2470;49.868;8.660;2022-08-21T04:06:53;20.00;97.00
4910;DHT22;2470;49.868;8.660;2022-08-21T04:09:19;20.00;96.90
4910;DHT22;2470;49.868;8.660;2022-08-21T04:11:45;20.00;96.80
4910;DHT22;2470;49.868;8.660;2022-08-21T04:14:12;20.00;96.90
4910;DHT22;2470;49.868;8.660;2022-08-21T04:16:38;20.00;96.90
4910;DHT22;2470;49.868;8.660;2022-08-21T04:19:04;20.00;96.90
4910;DHT22;2470;49.868;8.660;2022-08-21T04:21:30;19.90;97.00
4910;DHT22;2470;49.868;8.660;2022-08-21T04:23:57;19.90;97.10
4910;DHT22;2470;49.868;8.660;2022-08-21T04:26:22;19.90;97.10
4910;DHT22;2470;49.868;8.660;2022-08-21T04:28:48;19.90;97.10
4910;DHT22;2470;49.868;8.660;2022-08-21T04:31:13;19.90;97.10
4910;DHT22;2470;49.868;8.660;2022-08-21T04:33:39;19.90;97.10
4910;DHT22;2470;49.868;8.660;2022-08-21T04:36:05;19.90;97.10
4910;DHT22;2470;49.868;8.660;2022-08-21T04:38:32;19.90;97.20
4910;DHT22;2470;49.868;8.660;2022-08-21T04:40:57;19.90;97.20
4910;DHT22;2470;49.868;8.660;2022-08-21T04:43:23;19.90;97.20
4910;DHT22;2470;49.868;8.660;2022-08-21T04:45:51;19.90;97.10
4910;DHT22;2470;49.868;8.660;2022-08-21T04:48:20;19.90;97.00
4910;DHT22;2470;49.868;8.660;2022-08-21T04:53:22;19.90;96.70
4910;DHT22;2470;49.868;8.660;2022-08-21T04:55:49;19.90;96.70
4910;DHT22;2470;49.868;8.660;2022-08-21T04:58:19;20.00;96.70
4910;DHT22;2470;49.868;8.660;2022-08-21T05:00:47;20.00;96.60
4910;DHT22;2470;49.868;8.660;2022-08-21T05:03:14;20.00;96.60
4910;DHT22;2470;49.868;8.660;2022-08-21T05:05:41;20.00;96.60
4910;DHT22;2470;49.868;8.660;2022-08-21T05:08:09;20.00;96.50
4910;DHT22;2470;49.868;8.660;2022-08-21T05:10:37;20.10;96.80
4910;DHT22;2470;49.868;8.660;2022-08-21T05:13:03;20.10;96.50
4910;DHT22;2470;49.868;8.660;2022-08-21T05:15:30;20.10;96.60
4910;DHT22;2470;49.868;8.660;2022-08-21T05:17:55;20.10;96.60
4910;DHT22;2470;49.868;8.660;2022-08-21T05:20:21;20.20;96.60
4910;DHT22;2470;49.868;8.660;2022-08-21T05:22:46;20.20;96.50
4910;DHT22;2470;49.868;8.660;2022-08-21T05:25:12;20.30;96.40
4910;DHT22;2470;49.868;8.660;2022-08-21T05:27:38;20.30;96.40
4910;DHT22;2470;49.868;8.660;2022-08-21T05:30:07;20.30;96.20
4910;DHT22;2470;49.868;8.660;2022-08-21T05:32:33;20.30;96.20
4910;DHT22;2470;49.868;8.660;2022-08-21T05:34:59;20.30;96.30
4910;DHT22;2470;49.868;8.660;2022-08-21T05:37:25;20.40;96.30
4910;DHT22;2470;49.868;8.660;2022-08-21T05:39:50;20.40;96.20
4910;DHT22;2470;49.868;8.660;2022-08-21T05:42:16;20.50;96.10
4910;DHT22;2470;49.868;8.660;2022-08-21T05:44:42;20.50;96.10
4910;DHT22;2470;49.868;8.660;2022-08-21T05:47:09;20.60;96.00
4910;DHT22;2470;49.868;8.660;2022-08-21T05:49:35;20.60;95.90
4910;DHT22;2470;49.868;8.660;2022-08-21T05:52:02;20.60;95.80
4910;DHT22;2470;49.868;8.660;2022-08-21T05:54:28;20.70;95.70
4910;DHT22;2470;49.868;8.660;2022-08-21T05:56:53;20.70;95.60
4910;DHT22;2470;49.868;8.660;2022-08-21T05:59:19;20.80;95.50
4910;DHT22;2470;49.868;8.660;2022-08-21T06:01:45;20.90;95.50
4910;DHT22;2470;49.868;8.660;2022-08-21T06:04:11;20.90;95.30
4910;DHT22;2470;49.868;8.660;2022-08-21T06:06:37;21.00;95.20
4910;DHT22;2470;49.868;8.660;2022-08-21T06:09:04;21.10;95.20
4910;DHT22;2470;49.868;8.660;2022-08-21T06:11:30;21.10;95.00
4910;DHT22;2470;49.868;8.660;2022-08-21T06:13:56;21.20;94.90
4910;DHT22;2470;49.868;8.660;2022-08-21T06:16:22;21.30;94.80
4910;DHT22;2470;49.868;8.660;2022-08-21T06:18:48;21.30;94.70
4910;DHT22;2470;49.868;8.660;2022-08-21T06:21:14;21.40;94.60
4910;DHT22;2470;49.868;8.660;2022-08-21T06:23:40;21.40;94.30
4910;DHT22;2470;49.868;8.660;2022-08-21T06:26:07;21.50;94.10
4910;DHT22;2470;49.868;8.660;2022-08-21T06:28:33;21.60;94.10
4910;DHT22;2470;49.868;8.660;2022-08-21T06:31:00;21.60;93.80
4910;DHT22;2470;49.868;8.660;2022-08-21T06:33:25;21.70;93.80
4910;DHT22;2470;49.868;8.660;2022-08-21T06:35:51;21.80;93.40
4910;DHT22;2470;49.868;8.660;2022-08-21T06:38:16;21.90;93.20
4910;DHT22;2470;49.868;8.660;2022-08-21T06:40:42;22.00;92.80
4910;DHT22;2470;49.868;8.660;2022-08-21T06:43:14;22.00;92.60
4910;DHT22;2470;49.868;8.660;2022-08-21T06:45:40;22.20;92.00
4910;DHT22;2470;49.868;8.660;2022-08-21T06:48:06;22.20;91.40
4910;DHT22;2470;49.868;8.660;2022-08-21T06:50:33;22.30;91.00
4910;DHT22;2470;49.868;8.660;2022-08-21T06:53:07;22.30;90.70
4910;DHT22;2470;49.868;8.660;2022-08-21T06:55:33;22.30;90.60
4910;DHT22;2470;49.868;8.660;2022-08-21T06:57:59;22.40;90.50
4910;DHT22;2470;49.868;8.660;2022-08-21T07:00:26;22.50;90.20
4910;DHT22;2470;49.868;8.660;2022-08-21T07:02:51;22.60;89.30
4910;DHT22;2470;49.868;8.660;2022-08-21T07:05:17;22.70;88.40
4910;DHT22;2470;49.868;8.660;2022-08-21T07:07:43;22.70;88.50
4910;DHT22;2470;49.868;8.660;2022-08-21T07:10:09;22.70;87.30
4910;DHT22;2470;49.868;8.660;2022-08-21T07:12:34;22.80;86.90
4910;DHT22;2470;49.868;8.660;2022-08-21T07:15:00;22.80;87.30
4910;DHT22;2470;49.868;8.660;2022-08-21T07:17:25;22.90;87.00
4910;DHT22;2470;49.868;8.660;2022-08-21T07:19:51;22.90;87.20
4910;DHT22;2470;49.868;8.660;2022-08-21T07:22:18;22.90;87.40
4910;DHT22;2470;49.868;8.660;2022-08-21T07:24:45;23.00;87.30
4910;DHT22;2470;49.868;8.660;2022-08-21T07:27:11;23.00;87.10
4910;DHT22;2470;49.868;8.660;2022-08-21T07:29:36;23.10;86.60
4910;DHT22;2470;49.868;8.660;2022-08-21T07:32:03;23.00;86.00
4910;DHT22;2470;49.868;8.660;2022-08-21T07:34:28;23.10;86.50
4910;DHT22;2470;49.868;8.660;2022-08-21T07:36:54;23.10;87.00
4910;DHT22;2470;49.868;8.660;2022-08-21T07:39:19;23.20;87.50
4910;DHT22;2470;49.868;8.660;2022-08-21T07:41:45;23.30;88.50
4910;DHT22;2470;49.868;8.660;2022-08-21T07:44:10;23.40;89.40
4910;DHT22;2470;49.868;8.660;2022-08-21T07:46:36;23.40;89.90
4910;DHT22;2470;49.868;8.660;2022-08-21T07:49:01;23.50;90.20
4910;DHT22;2470;49.868;8.660;2022-08-21T07:51:28;23.40;89.50
4910;DHT22;2470;49.868;8.660;2022-08-21T07:53:55;23.40;90.20
4910;DHT22;2470;49.868;8.660;2022-08-21T07:56:21;23.30;90.70
4910;DHT22;2470;49.868;8.660;2022-08-21T07:58:47;23.40;91.00
4910;DHT22;2470;49.868;8.660;2022-08-21T08:01:13;23.40;90.30
4910;DHT22;2470;49.868;8.660;2022-08-21T08:03:40;23.40;90.40
4910;DHT22;2470;49.868;8.660;2022-08-21T08:06:06;23.50;90.50
4910;DHT22;2470;49.868;8.660;2022-08-21T08:08:33;23.50;89.90
4910;DHT22;2470;49.868;8.660;2022-08-21T08:10:59;23.50;90.00
4910;DHT22;2470;49.868;8.660;2022-08-21T08:13:26;23.50;90.40
4910;DHT22;2470;49.868;8.660;2022-08-21T08:15:52;23.50;90.30
4910;DHT22;2470;49.868;8.660;2022-08-21T08:18:18;23.50;90.30
4910;DHT22;2470;49.868;8.660;2022-08-21T08:20:43;23.60;90.30
4910;DHT22;2470;49.868;8.660;2022-08-21T08:23:11;23.70;90.30
4910;DHT22;2470;49.868;8.660;2022-08-21T08:25:37;23.80;90.20
4910;DHT22;2470;49.868;8.660;2022-08-21T08:28:04;23.90;89.80
4910;DHT22;2470;49.868;8.660;2022-08-21T08:30:30;24.00;89.00
4910;DHT22;2470;49.868;8.660;2022-08-21T08:32:55;24.10;88.20
4910;DHT22;2470;49.868;8.660;2022-08-21T08:35:22;24.10;87.80
4910;DHT22;2470;49.868;8.660;2022-08-21T08:37:47;24.10;87.80
4910;DHT22;2470;49.868;8.660;2022-08-21T08:42:55;24.20;87.90
4910;DHT22;2470;49.868;8.660;2022-08-21T08:45:21;24.20;88.00
4910;DHT22;2470;49.868;8.660;2022-08-21T08:47:53;24.30;87.80
4910;DHT22;2470;49.868;8.660;2022-08-21T08:50:44;24.30;87.40
4910;DHT22;2470;49.868;8.660;2022-08-21T08:53:19;24.40;86.70
4910;DHT22;2470;49.868;8.660;2022-08-21T08:55:48;24.40;86.20
4910;DHT22;2470;49.868;8.660;2022-08-21T08:58:22;24.40;85.50
4910;DHT22;2470;49.868;8.660;2022-08-21T09:00:51;24.20;85.30
4910;DHT22;2470;49.868;8.660;2022-08-21T09:03:18;24.00;83.70
4910;DHT22;2470;49.868;8.660;2022-08-21T09:05:53;23.90;84.60
4910;DHT22;2470;49.868;8.660;2022-08-21T09:11:32;23.70;85.50
4910;DHT22;2470;49.868;8.660;2022-08-21T09:19:32;24.50;79.50
4910;DHT22;2470;49.868;8.660;2022-08-21T09:22:19;24.80;73.50
4910;DHT22;2470;49.868;8.660;2022-08-21T09:25:08;24.90;73.50
4910;DHT22;2470;49.868;8.660;2022-08-21T09:27:36;25.00;72.90
4910;DHT22;2470;49.868;8.660;2022-08-21T09:30:03;24.90;71.50
4910;DHT22;2470;49.868;8.660;2022-08-21T09:32:31;24.80;71.10
4910;DHT22;2470;49.868;8.660;2022-08-21T09:35:17;24.80;72.50
4910;DHT22;2470;49.868;8.660;2022-08-21T09:37:57;24.70;72.70
4910;DHT22;2470;49.868;8.660;2022-08-21T09:40:39;24.80;73.40
4910;DHT22;2470;49.868;8.660;2022-08-21T09:45:38;25.10;74.20
4910;DHT22;2470;49.868;8.660;2022-08-21T09:48:09;25.30;73.80
4910;DHT22;2470;49.868;8.660;2022-08-21T09:50:35;25.50;72.50
4910;DHT22;2470;49.868;8.660;2022-08-21T09:53:01;25.60;72.00
4910;DHT22;2470;49.868;8.660;2022-08-21T09:55:47;25.70;70.80
4910;DHT22;2470;49.868;8.660;2022-08-21T09:58:34;25.60;70.10
4910;DHT22;2470;49.868;8.660;2022-08-21T10:01:01;25.30;70.70
4910;DHT22;2470;49.868;8.660;2022-08-21T10:03:27;25.20;70.40
4910;DHT22;2470;49.868;8.660;2022-08-21T10:06:24;25.30;70.40
4910;DHT22;2470;49.868;8.660;2022-08-21T10:08:49;25.50;69.00
4910;DHT22;2470;49.868;8.660;2022-08-21T10:11:17;25.70;67.60
4910;DHT22;2470;49.868;8.660;2022-08-21T10:13:57;25.70;66.70
4910;DHT22;2470;49.868;8.660;2022-08-21T10:16:29;25.70;67.00
4910;DHT22;2470;49.868;8.660;2022-08-21T10:19:26;25.70;66.30
4910;DHT22;2470;49.868;8.660;2022-08-21T10:22:30;25.60;66.60
4910;DHT22;2470;49.868;8.660;2022-08-21T10:36:14;25.70;62.60
4910;DHT22;2470;49.868;8.660;2022-08-21T10:46:57;26.20;60.60
4910;DHT22;2470;49.868;8.660;2022-08-21T10:52:41;26.40;59.10
4910;DHT22;2470;49.868;8.660;2022-08-21T10:55:25;26.50;57.70
4910;DHT22;2470;49.868;8.660;2022-08-21T10:57:58;26.40;58.00
4910;DHT22;2470;49.868;8.660;2022-08-21T11:00:46;26.40;58.20
4910;DHT22;2470;49.868;8.660;2022-08-21T11:03:27;26.50;58.00
4910;DHT22;2470;49.868;8.660;2022-08-21T11:06:13;26.60;58.00
4910;DHT22;2470;49.868;8.660;2022-08-21T11:08:42;26.70;57.10
4910;DHT22;2470;49.868;8.660;2022-08-21T11:11:15;27.00;56.70
4910;DHT22;2470;49.868;8.660;2022-08-21T11:17:07;27.00;56.30
4910;DHT22;2470;49.868;8.660;2022-08-21T11:19:35;26.80;56.50
4910;DHT22;2470;49.868;8.660;2022-08-21T11:22:21;26.70;56.40
4910;DHT22;2470;49.868;8.660;2022-08-21T11:27:38;26.70;54.40
4910;DHT22;2470;49.868;8.660;2022-08-21T11:30:06;26.60;55.10
4910;DHT22;2470;49.868;8.660;2022-08-21T11:35:27;27.00;54.90
4910;DHT22;2470;49.868;8.660;2022-08-21T11:45:55;27.30;54.10
4910;DHT22;2470;49.868;8.660;2022-08-21T11:48:32;27.50;53.50
4910;DHT22;2470;49.868;8.660;2022-08-21T11:51:00;27.50;53.40
4910;DHT22;2470;49.868;8.660;2022-08-21T11:54:03;27.50;52.80
4910;DHT22;2470;49.868;8.660;2022-08-21T11:56:35;27.50;51.90
4910;DHT22;2470;49.868;8.660;2022-08-21T11:59:12;27.40;51.30
4910;DHT22;2470;49.868;8.660;2022-08-21T12:01:42;27.50;50.70
4910;DHT22;2470;49.868;8.660;2022-08-21T12:04:26;27.50;51.30
4910;DHT22;2470;49.868;8.660;2022-08-21T12:06:53;27.50;51.90
4910;DHT22;2470;49.868;8.660;2022-08-21T12:14:46;28.00;51.70
4910;DHT22;2470;49.868;8.660;2022-08-21T12:17:38;28.10;51.00
4910;DHT22;2470;49.868;8.660;2022-08-21T12:20:32;28.30;49.70
4910;DHT22;2470;49.868;8.660;2022-08-21T12:25:42;28.70;49.60
4910;DHT22;2470;49.868;8.660;2022-08-21T12:28:10;28.80;49.70
4910;DHT22;2470;49.868;8.660;2022-08-21T12:30:40;29.00;49.90
4910;DHT22;2470;49.868;8.660;2022-08-21T12:33:20;29.20;49.30
4910;DHT22;2470;49.868;8.660;2022-08-21T12:35:47;29.50;48.70
4910;DHT22;2470;49.868;8.660;2022-08-21T12:38:26;30.00;47.80
4910;DHT22;2470;49.868;8.660;2022-08-21T12:45:56;33.60;42.60
4910;DHT22;2470;49.868;8.660;2022-08-21T12:49:12;35.20;40.50
4910;DHT22;2470;49.868;8.660;2022-08-21T12:51:28;36.70;39.20
4910;DHT22;2470;49.868;8.660;2022-08-21T12:53:58;38.50;35.90
4910;DHT22;2470;49.868;8.660;2022-08-21T12:56:26;39.80;34.60
4910;DHT22;2470;49.868;8.660;2022-08-21T12:58:55;40.10;33.70
4910;DHT22;2470;49.868;8.660;2022-08-21T13:01:39;41.10;33.30
4910;DHT22;2470;49.868;8.660;2022-08-21T13:04:15;42.10;32.60
4910;DHT22;2470;49.868;8.660;2022-08-21T13:06:44;43.30;31.60
4910;DHT22;2470;49.868;8.660;2022-08-21T13:09:16;43.60;28.80
4910;DHT22;2470;49.868;8.660;2022-08-21T13:11:45;41.10;29.20
4910;DHT22;2470;49.868;8.660;2022-08-21T13:14:28;39.60;30.80
4910;DHT22;2470;49.868;8.660;2022-08-21T13:16:56;41.00;31.10
4910;DHT22;2470;49.868;8.660;2022-08-21T13:19:23;43.00;29.90
4910;DHT22;2470;49.868;8.660;2022-08-21T13:21:50;44.90;28.70
4910;DHT22;2470;49.868;8.660;2022-08-21T13:24:27;46.40;27.80
4910;DHT22;2470;49.868;8.660;2022-08-21T13:26:54;47.70;27.10
4910;DHT22;2470;49.868;8.660;2022-08-21T13:29:23;48.90;25.80
4910;DHT22;2470;49.868;8.660;2022-08-21T13:31:53;47.30;25.60
4910;DHT22;2470;49.868;8.660;2022-08-21T13:34:21;44.50;26.30
4910;DHT22;2470;49.868;8.660;2022-08-21T13:36:48;44.30;27.10
4910;DHT22;2470;49.868;8.660;2022-08-21T13:39:18;45.70;26.30
4910;DHT22;2470;49.868;8.660;2022-08-21T13:41:46;47.40;25.90
4910;DHT22;2470;49.868;8.660;2022-08-21T13:46:48;49.70;24.70
4910;DHT22;2470;49.868;8.660;2022-08-21T13:49:17;49.60;24.10
4910;DHT22;2470;49.868;8.660;2022-08-21T13:51:44;49.40;24.70
4910;DHT22;2470;49.868;8.660;2022-08-21T13:54:16;50.10;24.40
4910;DHT22;2470;49.868;8.660;2022-08-21T13:56:46;50.50;23.60
4910;DHT22;2470;49.868;8.660;2022-08-21T13:59:22;50.80;23.60
4910;DHT22;2470;49.868;8.660;2022-08-21T14:02:00;50.80;23.30
4910;DHT22;2470;49.868;8.660;2022-08-21T14:04:33;51.10;23.00
4910;DHT22;2470;49.868;8.660;2022-08-21T14:07:00;50.80;22.50
4910;DHT22;2470;49.868;8.660;2022-08-21T14:09:33;50.70;22.70
4910;DHT22;2470;49.868;8.660;2022-08-21T14:12:02;49.70;22.60
4910;DHT22;2470;49.868;8.660;2022-08-21T14:14:37;50.00;22.80
4910;DHT22;2470;49.868;8.660;2022-08-21T14:17:07;50.80;22.40
4910;DHT22;2470;49.868;8.660;2022-08-21T14:19:40;51.10;22.30
4910;DHT22;2470;49.868;8.660;2022-08-21T14:22:41;51.80;22.00
4910;DHT22;2470;49.868;8.660;2022-08-21T14:25:48;52.20;21.60
4910;DHT22;2470;49.868;8.660;2022-08-21T14:30:46;52.20;21.80
4910;DHT22;2470;49.868;8.660;2022-08-21T14:33:15;52.20;21.80
4910;DHT22;2470;49.868;8.660;2022-08-21T14:35:43;52.10;21.40
4910;DHT22;2470;49.868;8.660;2022-08-21T14:38:15;52.30;21.70
4910;DHT22;2470;49.868;8.660;2022-08-21T14:40:43;52.20;21.20
4910;DHT22;2470;49.868;8.660;2022-08-21T14:43:09;51.30;20.80
4910;DHT22;2470;49.868;8.660;2022-08-21T14:45:35;51.10;21.10
4910;DHT22;2470;49.868;8.660;2022-08-21T14:48:02;50.80;21.30
4910;DHT22;2470;49.868;8.660;2022-08-21T14:50:28;50.50;21.20
4910;DHT22;2470;49.868;8.660;2022-08-21T14:52:53;50.80;21.20
4910;DHT22;2470;49.868;8.660;2022-08-21T14:55:19;51.30;20.80
4910;DHT22;2470;49.868;8.660;2022-08-21T14:57:48;50.30;20.70
4910;DHT22;2470;49.868;8.660;2022-08-21T15:00:18;48.20;21.30
4910;DHT22;2470;49.868;8.660;2022-08-21T15:02:45;48.10;22.10
4910;DHT22;2470;49.868;8.660;2022-08-21T15:05:11;48.60;21.80
4910;DHT22;2470;49.868;8.660;2022-08-21T15:07:37;48.30;21.40
4910;DHT22;2470;49.868;8.660;2022-08-21T15:10:04;48.00;21.60
4910;DHT22;2470;49.868;8.660;2022-08-21T15:12:30;48.70;21.80
4910;DHT22;2470;49.868;8.660;2022-08-21T15:14:56;48.90;21.20
4910;DHT22;2470;49.868;8.660;2022-08-21T15:17:21;46.80;21.50
4910;DHT22;2470;49.868;8.660;2022-08-21T15:19:47;44.40;22.80
4910;DHT22;2470;49.868;8.660;2022-08-21T15:22:13;43.20;23.90
4910;DHT22;2470;49.868;8.660;2022-08-21T15:24:38;42.20;24.30
4910;DHT22;2470;49.868;8.660;2022-08-21T15:27:06;40.60;24.70
4910;DHT22;2470;49.868;8.660;2022-08-21T15:29:33;39.00;25.60
4910;DHT22;2470;49.868;8.660;2022-08-21T15:32:14;37.30;26.70
4910;DHT22;2470;49.868;8.660;2022-08-21T15:34:43;36.20;28.10
4910;DHT22;2470;49.868;8.660;2022-08-21T15:37:09;35.30;28.60
4910;DHT22;2470;49.868;8.660;2022-08-21T15:39:35;34.80;29.20
4910;DHT22;2470;49.868;8.660;2022-08-21T15:42:02;34.20;29.70
4910;DHT22;2470;49.868;8.660;2022-08-21T15:44:28;33.70;30.10
4910;DHT22;2470;49.868;8.660;2022-08-21T15:46:55;33.20;30.70
4910;DHT22;2470;49.868;8.660;2022-08-21T15:49:21;32.90;31.30
4910;DHT22;2470;49.868;8.660;2022-08-21T15:51:46;32.60;31.80
4910;DHT22;2470;49.868;8.660;2022-08-21T15:54:12;32.30;32.10
4910;DHT22;2470;49.868;8.660;2022-08-21T15:56:39;32.10;32.40
4910;DHT22;2470;49.868;8.660;2022-08-21T15:59:14;31.90;32.50
4910;DHT22;2470;49.868;8.660;2022-08-21T16:01:41;31.60;33.00
4910;DHT22;2470;49.868;8.660;2022-08-21T16:04:07;31.80;33.30
4910;DHT22;2470;49.868;8.660;2022-08-21T16:06:33;31.70;32.80
4910;DHT22;2470;49.868;8.660;2022-08-21T16:09:02;31.50;32.70
4910;DHT22;2470;49.868;8.660;2022-08-21T16:11:28;31.40;33.80
4910;DHT22;2470;49.868;8.660;2022-08-21T16:13:54;31.30;34.20
4910;DHT22;2470;49.868;8.660;2022-08-21T16:16:22;31.30;34.10
4910;DHT22;2470;49.868;8.660;2022-08-21T16:18:49;31.30;34.30
4910;DHT22;2470;49.868;8.660;2022-08-21T16:21:15;31.10;33.90
4910;DHT22;2470;49.868;8.660;2022-08-21T16:23:40;31.10;34.30
4910;DHT22;2470;49.868;8.660;2022-08-21T16:26:08;31.00;34.70
4910;DHT22;2470;49.868;8.660;2022-08-21T16:28:36;31.00;34.60
4910;DHT22;2470;49.868;8.660;2022-08-21T16:31:03;30.90;34.90
4910;DHT22;2470;49.868;8.660;2022-08-21T16:33:33;31.20;34.40
4910;DHT22;2470;49.868;8.660;2022-08-21T16:36:00;31.40;34.60
4910;DHT22;2470;49.868;8.660;2022-08-21T16:38:29;31.30;34.20
4910;DHT22;2470;49.868;8.660;2022-08-21T16:40:55;31.20;34.60
4910;DHT22;2470;49.868;8.660;2022-08-21T16:43:22;31.40;34.60
4910;DHT22;2470;49.868;8.660;2022-08-21T16:45:49;31.30;34.10
4910;DHT22;2470;49.868;8.660;2022-08-21T16:48:14;31.00;34.30
4910;DHT22;2470;49.868;8.660;2022-08-21T16:50:40;30.80;34.60
4910;DHT22;2470;49.868;8.660;2022-08-21T16:53:05;30.80;35.20
4910;DHT22;2470;49.868;8.660;2022-08-21T16:55:33;30.90;35.60
4910;DHT22;2470;49.868;8.660;2022-08-21T16:58:30;30.80;35.50
4910;DHT22;2470;49.868;8.660;2022-08-21T17:00:54;30.60;35.00
4910;DHT22;2470;49.868;8.660;2022-08-21T17:03:28;30.30;35.00
4910;DHT22;2470;49.868;8.660;2022-08-21T17:05:54;30.20;35.70
4910;DHT22;2470;49.868;8.660;2022-08-21T17:08:20;30.00;36.50
4910;DHT22;2470;49.868;8.660;2022-08-21T17:10:48;29.90;37.10
4910;DHT22;2470;49.868;8.660;2022-08-21T17:13:14;29.70;37.20
4910;DHT22;2470;49.868;8.660;2022-08-21T17:15:39;29.50;37.00
4910;DHT22;2470;49.868;8.660;2022-08-21T17:18:09;29.40;36.70
4910;DHT22;2470;49.868;8.660;2022-08-21T17:20:36;29.40;37.20
4910;DHT22;2470;49.868;8.660;2022-08-21T17:23:02;29.30;37.30
4910;DHT22;2470;49.868;8.660;2022-08-21T17:25:27;29.20;37.40
4910;DHT22;2470;49.868;8.660;2022-08-21T17:27:53;29.00;37.50
4910;DHT22;2470;49.868;8.660;2022-08-21T17:30:20;28.90;37.20